sensor_id;sensor_type;location;lat;lon;timestamp;P1;durP1;ratioP1;P2;durP2;ratioP2
21721;SDS011;11023;48.274;7.794;2022-12-07T00:00:30;34.20;;;18.23;;
21721;SDS011;11023;48.274;7.794;2022-12-07T00:02:55;28.15;;;17.80;;
21721;SDS011;11023;48.274;7.794;2022-12-07T00:05:21;31.42;;;19.73;;
21721;SDS011;11023;48.274;7.794;2022-12-07T00:07:47;28.88;;;18.45;;
21721;SDS011;11023;48.274;7.794;2022-12-07T00:10:14;30.60;;;19.27;;
21721;SDS011;11023;48.274;7.794;2022-12-07T00:12:39;31.55;;;19.88;;
21721;SDS011;11023;48.274;7.794;2022-12-07T00:15:06;29.58;;;18.65;;
21721;SDS011;11023;48.274;7.794;2022-12-07T00:17:32;31.63;;;19.27;;
21721;SDS011;11023;48.274;7.794;2022-12-07T00:19:58;31.15;;;19.80;;
21721;SDS011;11023;48.274;7.794;2022-12-07T00:22:24;31.85;;;20.08;;
21721;SDS011;11023;48.274;7.794;2022-12-07T00:24:50;33.47;;;19.98;;
21721;SDS011;11023;48.274;7.794;2022-12-07T00:27:15;29.77;;;19.25;;
21721;SDS011;11023;48.274;7.794;2022-12-07T00:29:41;30.75;;;19.10;;
21721;SDS011;11023;48.274;7.794;2022-12-07T00:32:07;34.63;;;20.92;;
21721;SDS011;11023;48.274;7.794;2022-12-07T00:34:32;36.00;;;21.17;;
21721;SDS011;11023;48.274;7.794;2022-12-07T00:36:58;32.85;;;21.00;;
21721;SDS011;11023;48.274;7.794;2022-12-07T00:39:23;33.75;;;22.45;;
21721;SDS011;11023;48.274;7.794;2022-12-07T00:41:49;33.38;;;20.95;;
21721;SDS011;11023;48.274;7.794;2022-12-07T00:44:15;33.00;;;21.20;;
21721;SDS011;11023;48.274;7.794;2022-12-07T00:46:40;32.75;;;20.80;;
21721;SDS011;11023;48.274;7.794;2022-12-07T00:49:06;30.75;;;19.92;;
21721;SDS011;11023;48.274;7.794;2022-12-07T00:51:32;34.70;;;20.45;;
21721;SDS011;11023;48.274;7.794;2022-12-07T00:53:57;35.50;;;21.50;;
21721;SDS011;11023;48.274;7.794;2022-12-07T00:56:24;37.75;;;20.42;;
21721;SDS011;11023;48.274;7.794;2022-12-07T00:59:01;36.80;;;21.48;;
21721;SDS011;11023;48.274;7.794;2022-12-07T01:01:30;33.22;;;21.70;;
21721;SDS011;11023;48.274;7.794;2022-12-07T01:03:57;31.83;;;20.00;;
21721;SDS011;11023;48.274;7.794;2022-12-07T01:06:23;36.17;;;22.52;;
21721;SDS011;11023;48.274;7.794;2022-12-07T01:08:50;37.60;;;22.30;;
21721;SDS011;11023;48.274;7.794;2022-12-07T01:11:18;31.80;;;20.35;;
21721;SDS011;11023;48.274;7.794;2022-12-07T01:13:45;34.00;;;21.83;;
21721;SDS011;11023;48.274;7.794;2022-12-07T01:16:12;36.35;;;22.08;;
21721;SDS011;11023;48.274;7.794;2022-12-07T01:18:40;31.83;;;20.00;;
21721;SDS011;11023;48.274;7.794;2022-12-07T01:21:13;32.45;;;21.35;;
21721;SDS011;11023;48.274;7.794;2022-12-07T01:23:41;35.65;;;22.27;;
21721;SDS011;11023;48.274;7.794;2022-12-07T01:26:09;33.13;;;20.90;;
21721;SDS011;11023;48.274;7.794;2022-12-07T01:28:37;33.20;;;21.25;;
21721;SDS011;11023;48.274;7.794;2022-12-07T01:31:04;32.22;;;21.23;;
21721;SDS011;11023;48.274;7.794;2022-12-07T01:33:33;34.03;;;21.73;;
21721;SDS011;11023;48.274;7.794;2022-12-07T01:36:22;30.63;;;19.67;;
21721;SDS011;11023;48.274;7.794;2022-12-07T01:38:47;33.45;;;21.73;;
21721;SDS011;11023;48.274;7.794;2022-12-07T01:41:17;34.13;;;22.55;;
21721;SDS011;11023;48.274;7.794;2022-12-07T01:46:40;36.33;;;22.75;;
21721;SDS011;11023;48.274;7.794;2022-12-07T01:49:10;36.30;;;21.75;;
21721;SDS011;11023;48.274;7.794;2022-12-07T01:51:41;35.33;;;22.40;;
21721;SDS011;11023;48.274;7.794;2022-12-07T01:54:08;35.75;;;22.55;;
21721;SDS011;11023;48.274;7.794;2022-12-07T01:56:35;36.92;;;22.90;;
21721;SDS011;11023;48.274;7.794;2022-12-07T01:59:02;37.70;;;22.77;;
21721;SDS011;11023;48.274;7.794;2022-12-07T02:01:28;35.80;;;22.42;;
21721;SDS011;11023;48.274;7.794;2022-12-07T02:03:54;33.33;;;22.15;;
21721;SDS011;11023;48.274;7.794;2022-12-07T02:06:21;29.65;;;20.13;;
21721;SDS011;11023;48.274;7.794;2022-12-07T02:08:49;35.03;;;21.65;;
21721;SDS011;11023;48.274;7.794;2022-12-07T02:11:15;38.13;;;23.27;;
21721;SDS011;11023;48.274;7.794;2022-12-07T02:13:41;37.10;;;22.83;;
21721;SDS011;11023;48.274;7.794;2022-12-07T02:29:35;34.42;;;21.27;;
21721;SDS011;11023;48.274;7.794;2022-12-07T02:32:04;35.88;;;22.52;;
21721;SDS011;11023;48.274;7.794;2022-12-07T02:34:50;32.17;;;20.80;;
21721;SDS011;11023;48.274;7.794;2022-12-07T02:40:12;35.70;;;22.15;;
21721;SDS011;11023;48.274;7.794;2022-12-07T02:42:55;35.42;;;22.60;;
21721;SDS011;11023;48.274;7.794;2022-12-07T02:45:27;38.15;;;22.77;;
21721;SDS011;11023;48.274;7.794;2022-12-07T02:47:56;34.78;;;22.73;;
21721;SDS011;11023;48.274;7.794;2022-12-07T02:50:24;33.15;;;22.20;;
21721;SDS011;11023;48.274;7.794;2022-12-07T02:52:50;34.20;;;23.13;;
21721;SDS011;11023;48.274;7.794;2022-12-07T02:55:17;32.80;;;21.30;;
21721;SDS011;11023;48.274;7.794;2022-12-07T03:00:31;32.42;;;20.83;;
21721;SDS011;11023;48.274;7.794;2022-12-07T03:03:09;32.85;;;21.85;;
21721;SDS011;11023;48.274;7.794;2022-12-07T03:10:58;32.70;;;20.98;;
21721;SDS011;11023;48.274;7.794;2022-12-07T03:16:20;29.08;;;19.73;;
21721;SDS011;11023;48.274;7.794;2022-12-07T03:18:52;31.38;;;20.15;;
21721;SDS011;11023;48.274;7.794;2022-12-07T03:21:23;30.55;;;20.25;;
21721;SDS011;11023;48.274;7.794;2022-12-07T03:23:54;31.90;;;20.98;;
21721;SDS011;11023;48.274;7.794;2022-12-07T03:26:21;31.38;;;20.27;;
21721;SDS011;11023;48.274;7.794;2022-12-07T03:28:55;32.55;;;19.67;;
21721;SDS011;11023;48.274;7.794;2022-12-07T03:31:25;28.10;;;18.40;;
21721;SDS011;11023;48.274;7.794;2022-12-07T03:36:33;31.65;;;20.10;;
21721;SDS011;11023;48.274;7.794;2022-12-07T03:39:11;30.58;;;19.25;;
21721;SDS011;11023;48.274;7.794;2022-12-07T03:41:38;29.63;;;19.95;;
21721;SDS011;11023;48.274;7.794;2022-12-07T03:44:04;31.25;;;21.02;;
21721;SDS011;11023;48.274;7.794;2022-12-07T03:46:42;29.50;;;18.63;;
21721;SDS011;11023;48.274;7.794;2022-12-07T03:49:37;33.30;;;19.73;;
21721;SDS011;11023;48.274;7.794;2022-12-07T03:52:25;31.17;;;20.27;;
21721;SDS011;11023;48.274;7.794;2022-12-07T03:57:40;28.83;;;18.73;;
21721;SDS011;11023;48.274;7.794;2022-12-07T04:00:09;30.83;;;20.13;;
21721;SDS011;11023;48.274;7.794;2022-12-07T04:02:35;29.52;;;19.83;;
21721;SDS011;11023;48.274;7.794;2022-12-07T04:05:01;29.45;;;19.35;;
21721;SDS011;11023;48.274;7.794;2022-12-07T04:07:27;29.45;;;19.35;;
21721;SDS011;11023;48.274;7.794;2022-12-07T04:09:53;31.23;;;19.58;;
21721;SDS011;11023;48.274;7.794;2022-12-07T04:12:20;33.67;;;20.42;;
21721;SDS011;11023;48.274;7.794;2022-12-07T04:14:46;30.27;;;19.58;;
21721;SDS011;11023;48.274;7.794;2022-12-07T04:17:12;29.33;;;19.40;;
21721;SDS011;11023;48.274;7.794;2022-12-07T04:19:38;29.80;;;19.27;;
21721;SDS011;11023;48.274;7.794;2022-12-07T04:22:03;24.90;;;16.58;;
21721;SDS011;11023;48.274;7.794;2022-12-07T04:24:30;28.33;;;18.80;;
21721;SDS011;11023;48.274;7.794;2022-12-07T04:26:56;30.65;;;19.55;;
21721;SDS011;11023;48.274;7.794;2022-12-07T04:29:22;28.23;;;18.42;;
21721;SDS011;11023;48.274;7.794;2022-12-07T04:31:48;28.30;;;18.67;;
21721;SDS011;11023;48.274;7.794;2022-12-07T04:34:15;27.92;;;18.52;;
21721;SDS011;11023;48.274;7.794;2022-12-07T04:36:42;26.67;;;17.38;;
21721;SDS011;11023;48.274;7.794;2022-12-07T04:39:18;29.63;;;19.30;;
21721;SDS011;11023;48.274;7.794;2022-12-07T04:41:56;27.92;;;17.90;;
21721;SDS011;11023;48.274;7.794;2022-12-07T04:44:22;25.90;;;16.70;;
21721;SDS011;11023;48.274;7.794;2022-12-07T04:46:49;26.38;;;18.00;;
21721;SDS011;11023;48.274;7.794;2022-12-07T04:49:15;23.73;;;16.33;;
21721;SDS011;11023;48.274;7.794;2022-12-07T04:51:43;23.13;;;15.90;;
21721;SDS011;11023;48.274;7.794;2022-12-07T04:54:09;27.02;;;17.48;;
21721;SDS011;11023;48.274;7.794;2022-12-07T04:56:35;23.40;;;16.25;;
21721;SDS011;11023;48.274;7.794;2022-12-07T04:59:02;24.10;;;16.48;;
21721;SDS011;11023;48.274;7.794;2022-12-07T05:01:29;25.38;;;16.70;;
21721;SDS011;11023;48.274;7.794;2022-12-07T05:03:55;27.73;;;17.80;;
21721;SDS011;11023;48.274;7.794;2022-12-07T05:06:21;26.48;;;16.65;;
21721;SDS011;11023;48.274;7.794;2022-12-07T05:08:47;27.25;;;18.23;;
21721;SDS011;11023;48.274;7.794;2022-12-07T05:11:13;23.35;;;16.27;;
21721;SDS011;11023;48.274;7.794;2022-12-07T05:13:59;25.75;;;16.50;;
21721;SDS011;11023;48.274;7.794;2022-12-07T05:16:25;26.58;;;16.05;;
21721;SDS011;11023;48.274;7.794;2022-12-07T05:18:51;21.70;;;14.95;;
21721;SDS011;11023;48.274;7.794;2022-12-07T05:21:17;23.67;;;15.75;;
21721;SDS011;11023;48.274;7.794;2022-12-07T05:23:43;23.92;;;15.15;;
21721;SDS011;11023;48.274;7.794;2022-12-07T05:26:08;23.42;;;14.88;;
21721;SDS011;11023;48.274;7.794;2022-12-07T05:28:34;21.85;;;14.52;;
21721;SDS011;11023;48.274;7.794;2022-12-07T05:31:00;21.67;;;13.75;;
21721;SDS011;11023;48.274;7.794;2022-12-07T05:33:26;22.25;;;13.88;;
21721;SDS011;11023;48.274;7.794;2022-12-07T05:35:51;22.77;;;14.65;;
21721;SDS011;11023;48.274;7.794;2022-12-07T05:38:17;19.83;;;13.65;;
21721;SDS011;11023;48.274;7.794;2022-12-07T05:40:43;21.95;;;14.77;;
21721;SDS011;11023;48.274;7.794;2022-12-07T05:43:08;23.60;;;14.93;;
21721;SDS011;11023;48.274;7.794;2022-12-07T05:45:34;22.67;;;15.00;;
21721;SDS011;11023;48.274;7.794;2022-12-07T05:48:00;22.27;;;14.48;;
21721;SDS011;11023;48.274;7.794;2022-12-07T05:50:25;19.50;;;13.55;;
21721;SDS011;11023;48.274;7.794;2022-12-07T05:52:52;22.05;;;15.18;;
21721;SDS011;11023;48.274;7.794;2022-12-07T05:55:18;20.77;;;14.02;;
21721;SDS011;11023;48.274;7.794;2022-12-07T05:57:44;24.30;;;15.27;;
21721;SDS011;11023;48.274;7.794;2022-12-07T06:00:29;22.35;;;14.48;;
21721;SDS011;11023;48.274;7.794;2022-12-07T06:02:55;21.45;;;14.35;;
21721;SDS011;11023;48.274;7.794;2022-12-07T06:05:21;25.33;;;15.25;;
21721;SDS011;11023;48.274;7.794;2022-12-07T06:07:46;23.77;;;15.55;;
21721;SDS011;11023;48.274;7.794;2022-12-07T06:10:12;21.98;;;14.23;;
21721;SDS011;11023;48.274;7.794;2022-12-07T06:12:38;23.05;;;14.35;;
21721;SDS011;11023;48.274;7.794;2022-12-07T06:15:04;23.77;;;15.13;;
21721;SDS011;11023;48.274;7.794;2022-12-07T06:17:31;24.27;;;16.15;;
21721;SDS011;11023;48.274;7.794;2022-12-07T06:19:56;26.85;;;15.18;;
21721;SDS011;11023;48.274;7.794;2022-12-07T06:22:22;24.88;;;16.00;;
21721;SDS011;11023;48.274;7.794;2022-12-07T06:24:48;24.33;;;16.88;;
21721;SDS011;11023;48.274;7.794;2022-12-07T06:27:13;22.55;;;15.85;;
21721;SDS011;11023;48.274;7.794;2022-12-07T06:29:39;25.52;;;16.17;;
21721;SDS011;11023;48.274;7.794;2022-12-07T06:32:05;23.05;;;15.07;;
21721;SDS011;11023;48.274;7.794;2022-12-07T06:34:31;21.00;;;14.15;;
21721;SDS011;11023;48.274;7.794;2022-12-07T06:36:56;24.80;;;16.58;;
21721;SDS011;11023;48.274;7.794;2022-12-07T06:39:24;31.52;;;21.17;;
21721;SDS011;11023;48.274;7.794;2022-12-07T06:41:51;25.80;;;16.58;;
21721;SDS011;11023;48.274;7.794;2022-12-07T06:44:17;27.13;;;17.42;;
21721;SDS011;11023;48.274;7.794;2022-12-07T06:46:43;30.30;;;19.52;;
21721;SDS011;11023;48.274;7.794;2022-12-07T06:49:09;29.73;;;19.00;;
21721;SDS011;11023;48.274;7.794;2022-12-07T06:51:35;27.77;;;17.92;;
21721;SDS011;11023;48.274;7.794;2022-12-07T06:54:05;20.10;;;13.82;;
21721;SDS011;11023;48.274;7.794;2022-12-07T06:56:34;18.15;;;12.55;;
21721;SDS011;11023;48.274;7.794;2022-12-07T06:59:00;18.15;;;12.70;;
21721;SDS011;11023;48.274;7.794;2022-12-07T07:01:26;21.02;;;12.73;;
21721;SDS011;11023;48.274;7.794;2022-12-07T07:03:51;17.70;;;12.27;;
21721;SDS011;11023;48.274;7.794;2022-12-07T07:06:17;18.00;;;12.50;;
21721;SDS011;11023;48.274;7.794;2022-12-07T07:08:43;19.05;;;12.68;;
21721;SDS011;11023;48.274;7.794;2022-12-07T07:11:09;21.42;;;13.73;;
21721;SDS011;11023;48.274;7.794;2022-12-07T07:13:36;21.58;;;13.70;;
21721;SDS011;11023;48.274;7.794;2022-12-07T07:16:02;21.25;;;14.45;;
21721;SDS011;11023;48.274;7.794;2022-12-07T07:18:28;21.23;;;13.65;;
21721;SDS011;11023;48.274;7.794;2022-12-07T07:20:54;21.58;;;12.88;;
21721;SDS011;11023;48.274;7.794;2022-12-07T07:23:20;18.40;;;11.57;;
21721;SDS011;11023;48.274;7.794;2022-12-07T07:25:46;20.42;;;12.50;;
21721;SDS011;11023;48.274;7.794;2022-12-07T07:28:12;17.02;;;11.43;;
21721;SDS011;11023;48.274;7.794;2022-12-07T07:30:38;19.08;;;12.23;;
21721;SDS011;11023;48.274;7.794;2022-12-07T07:33:04;18.73;;;11.90;;
21721;SDS011;11023;48.274;7.794;2022-12-07T07:35:31;19.13;;;11.30;;
21721;SDS011;11023;48.274;7.794;2022-12-07T07:37:58;19.08;;;12.05;;
21721;SDS011;11023;48.274;7.794;2022-12-07T07:40:24;18.38;;;11.52;;
21721;SDS011;11023;48.274;7.794;2022-12-07T07:42:51;15.73;;;10.52;;
21721;SDS011;11023;48.274;7.794;2022-12-07T07:45:20;17.67;;;10.95;;
21721;SDS011;11023;48.274;7.794;2022-12-07T07:47:47;17.38;;;10.68;;
21721;SDS011;11023;48.274;7.794;2022-12-07T07:50:14;15.68;;;10.63;;
21721;SDS011;11023;48.274;7.794;2022-12-07T07:52:41;15.40;;;10.48;;
21721;SDS011;11023;48.274;7.794;2022-12-07T07:55:08;16.58;;;10.35;;
21721;SDS011;11023;48.274;7.794;2022-12-07T07:57:35;15.52;;;9.52;;
21721;SDS011;11023;48.274;7.794;2022-12-07T08:00:05;15.35;;;9.65;;
21721;SDS011;11023;48.274;7.794;2022-12-07T08:02:34;15.27;;;11.10;;
21721;SDS011;11023;48.274;7.794;2022-12-07T08:04:59;18.10;;;10.50;;
21721;SDS011;11023;48.274;7.794;2022-12-07T08:07:26;16.02;;;10.63;;
21721;SDS011;11023;48.274;7.794;2022-12-07T08:09:52;14.85;;;10.30;;
21721;SDS011;11023;48.274;7.794;2022-12-07T08:12:18;18.27;;;10.80;;
21721;SDS011;11023;48.274;7.794;2022-12-07T08:14:44;16.90;;;10.73;;
21721;SDS011;11023;48.274;7.794;2022-12-07T08:17:10;17.55;;;10.75;;
21721;SDS011;11023;48.274;7.794;2022-12-07T08:19:35;16.02;;;10.63;;
21721;SDS011;11023;48.274;7.794;2022-12-07T08:22:01;16.08;;;11.02;;
21721;SDS011;11023;48.274;7.794;2022-12-07T08:24:27;15.30;;;10.15;;
21721;SDS011;11023;48.274;7.794;2022-12-07T08:26:53;16.90;;;11.30;;
21721;SDS011;11023;48.274;7.794;2022-12-07T08:29:18;21.05;;;12.13;;
21721;SDS011;11023;48.274;7.794;2022-12-07T08:31:44;17.95;;;10.82;;
21721;SDS011;11023;48.274;7.794;2022-12-07T08:34:10;20.55;;;12.50;;
21721;SDS011;11023;48.274;7.794;2022-12-07T08:36:37;20.40;;;13.18;;
21721;SDS011;11023;48.274;7.794;2022-12-07T08:39:02;24.48;;;14.02;;
21721;SDS011;11023;48.274;7.794;2022-12-07T08:41:28;24.50;;;13.90;;
21721;SDS011;11023;48.274;7.794;2022-12-07T08:43:54;29.10;;;15.63;;
21721;SDS011;11023;48.274;7.794;2022-12-07T08:46:21;28.48;;;15.48;;
21721;SDS011;11023;48.274;7.794;2022-12-07T08:48:55;26.80;;;15.35;;
21721;SDS011;11023;48.274;7.794;2022-12-07T08:51:23;25.60;;;14.13;;
21721;SDS011;11023;48.274;7.794;2022-12-07T08:53:49;25.52;;;14.13;;
21721;SDS011;11023;48.274;7.794;2022-12-07T08:56:16;29.38;;;15.15;;
21721;SDS011;11023;48.274;7.794;2022-12-07T08:58:43;26.25;;;15.45;;
21721;SDS011;11023;48.274;7.794;2022-12-07T09:01:09;28.30;;;14.77;;
21721;SDS011;11023;48.274;7.794;2022-12-07T09:03:35;29.73;;;16.15;;
21721;SDS011;11023;48.274;7.794;2022-12-07T09:06:00;23.50;;;14.65;;
21721;SDS011;11023;48.274;7.794;2022-12-07T09:08:27;22.48;;;14.88;;
21721;SDS011;11023;48.274;7.794;2022-12-07T09:10:58;24.80;;;16.52;;
21721;SDS011;11023;48.274;7.794;2022-12-07T09:13:23;23.08;;;15.30;;
21721;SDS011;11023;48.274;7.794;2022-12-07T09:15:49;26.42;;;16.77;;
21721;SDS011;11023;48.274;7.794;2022-12-07T09:18:14;25.70;;;15.77;;
21721;SDS011;11023;48.274;7.794;2022-12-07T09:20:40;25.65;;;16.20;;
21721;SDS011;11023;48.274;7.794;2022-12-07T09:23:06;22.65;;;14.85;;
21721;SDS011;11023;48.274;7.794;2022-12-07T09:25:32;30.23;;;16.17;;
21721;SDS011;11023;48.274;7.794;2022-12-07T09:27:59;28.55;;;16.20;;
21721;SDS011;11023;48.274;7.794;2022-12-07T09:30:25;30.02;;;16.67;;
21721;SDS011;11023;48.274;7.794;2022-12-07T09:32:55;26.10;;;14.90;;
21721;SDS011;11023;48.274;7.794;2022-12-07T09:35:22;22.70;;;14.43;;
21721;SDS011;11023;48.274;7.794;2022-12-07T09:37:48;22.75;;;14.40;;
21721;SDS011;11023;48.274;7.794;2022-12-07T09:40:14;23.58;;;15.18;;
21721;SDS011;11023;48.274;7.794;2022-12-07T09:42:42;23.38;;;15.70;;
21721;SDS011;11023;48.274;7.794;2022-12-07T09:45:24;23.63;;;17.23;;
21721;SDS011;11023;48.274;7.794;2022-12-07T09:47:54;22.85;;;16.13;;
21721;SDS011;11023;48.274;7.794;2022-12-07T09:50:21;22.60;;;13.95;;
21721;SDS011;11023;48.274;7.794;2022-12-07T09:52:49;20.83;;;14.93;;
21721;SDS011;11023;48.274;7.794;2022-12-07T09:55:19;19.70;;;14.52;;
21721;SDS011;11023;48.274;7.794;2022-12-07T09:57:49;21.25;;;14.95;;
21721;SDS011;11023;48.274;7.794;2022-12-07T10:00:17;19.55;;;14.02;;
21721;SDS011;11023;48.274;7.794;2022-12-07T10:02:47;21.60;;;14.70;;
21721;SDS011;11023;48.274;7.794;2022-12-07T10:05:24;23.00;;;14.20;;
21721;SDS011;11023;48.274;7.794;2022-12-07T10:07:56;21.52;;;14.20;;
21721;SDS011;11023;48.274;7.794;2022-12-07T10:10:26;19.67;;;14.05;;
21721;SDS011;11023;48.274;7.794;2022-12-07T10:12:56;19.38;;;13.02;;
21721;SDS011;11023;48.274;7.794;2022-12-07T10:15:45;16.77;;;12.13;;
21721;SDS011;11023;48.274;7.794;2022-12-07T10:18:25;18.38;;;12.43;;
21721;SDS011;11023;48.274;7.794;2022-12-07T10:23:42;18.08;;;12.30;;
21721;SDS011;11023;48.274;7.794;2022-12-07T10:32:00;19.40;;;13.20;;
21721;SDS011;11023;48.274;7.794;2022-12-07T10:34:35;18.42;;;12.20;;
21721;SDS011;11023;48.274;7.794;2022-12-07T10:42:20;17.77;;;12.20;;
21721;SDS011;11023;48.274;7.794;2022-12-07T11:00:50;17.80;;;14.15;;
21721;SDS011;11023;48.274;7.794;2022-12-07T11:03:30;15.88;;;11.68;;
21721;SDS011;11023;48.274;7.794;2022-12-07T11:06:10;17.17;;;11.95;;
21721;SDS011;11023;48.274;7.794;2022-12-07T11:11:16;16.27;;;11.60;;
21721;SDS011;11023;48.274;7.794;2022-12-07T11:14:01;15.90;;;12.32;;
21721;SDS011;11023;48.274;7.794;2022-12-07T11:20:02;12.93;;;8.98;;
21721;SDS011;11023;48.274;7.794;2022-12-07T11:25:23;16.33;;;11.80;;
21721;SDS011;11023;48.274;7.794;2022-12-07T11:31:05;16.75;;;11.02;;
21721;SDS011;11023;48.274;7.794;2022-12-07T11:36:42;15.20;;;11.32;;
21721;SDS011;11023;48.274;7.794;2022-12-07T11:41:41;15.30;;;11.13;;
21721;SDS011;11023;48.274;7.794;2022-12-07T11:44:24;15.32;;;11.23;;
21721;SDS011;11023;48.274;7.794;2022-12-07T11:52:05;17.83;;;12.60;;
21721;SDS011;11023;48.274;7.794;2022-12-07T11:54:42;15.77;;;10.55;;
21721;SDS011;11023;48.274;7.794;2022-12-07T12:00:12;13.52;;;9.82;;
21721;SDS011;11023;48.274;7.794;2022-12-07T12:05:31;15.15;;;10.57;;
21721;SDS011;11023;48.274;7.794;2022-12-07T12:08:05;15.85;;;10.52;;
21721;SDS011;11023;48.274;7.794;2022-12-07T12:13:50;15.10;;;10.73;;
21721;SDS011;11023;48.274;7.794;2022-12-07T12:19:34;14.23;;;9.85;;
21721;SDS011;11023;48.274;7.794;2022-12-07T12:22:25;13.30;;;9.45;;
21721;SDS011;11023;48.274;7.794;2022-12-07T12:25:06;12.23;;;9.55;;
21721;SDS011;11023;48.274;7.794;2022-12-07T12:27:42;13.77;;;9.35;;
21721;SDS011;11023;48.274;7.794;2022-12-07T12:33:42;13.23;;;9.82;;
21721;SDS011;11023;48.274;7.794;2022-12-07T12:36:18;14.25;;;11.15;;
21721;SDS011;11023;48.274;7.794;2022-12-07T12:54:29;14.88;;;12.02;;
21721;SDS011;11023;48.274;7.794;2022-12-07T12:57:00;16.27;;;12.73;;
21721;SDS011;11023;48.274;7.794;2022-12-07T12:59:32;16.58;;;12.57;;
21721;SDS011;11023;48.274;7.794;2022-12-07T13:04:55;12.38;;;9.95;;
21721;SDS011;11023;48.274;7.794;2022-12-07T13:13:01;13.20;;;9.88;;
21721;SDS011;11023;48.274;7.794;2022-12-07T13:15:34;12.98;;;9.00;;
21721;SDS011;11023;48.274;7.794;2022-12-07T13:20:52;11.43;;;8.85;;
21721;SDS011;11023;48.274;7.794;2022-12-07T13:23:25;10.80;;;7.90;;
21721;SDS011;11023;48.274;7.794;2022-12-07T13:26:16;10.90;;;8.35;;
21721;SDS011;11023;48.274;7.794;2022-12-07T13:28:46;12.02;;;8.55;;
21721;SDS011;11023;48.274;7.794;2022-12-07T13:31:30;11.95;;;8.48;;
21721;SDS011;11023;48.274;7.794;2022-12-07T13:34:03;11.27;;;8.13;;
21721;SDS011;11023;48.274;7.794;2022-12-07T13:36:32;12.05;;;8.40;;
21721;SDS011;11023;48.274;7.794;2022-12-07T13:41:58;13.73;;;9.68;;
21721;SDS011;11023;48.274;7.794;2022-12-07T13:44:33;12.40;;;8.90;;
21721;SDS011;11023;48.274;7.794;2022-12-07T13:49:52;13.88;;;9.02;;
21721;SDS011;11023;48.274;7.794;2022-12-07T13:52:26;10.90;;;8.02;;
21721;SDS011;11023;48.274;7.794;2022-12-07T13:57:24;13.27;;;9.13;;
21721;SDS011;11023;48.274;7.794;2022-12-07T13:59:51;12.52;;;8.88;;
21721;SDS011;11023;48.274;7.794;2022-12-07T14:02:21;12.23;;;8.40;;
21721;SDS011;11023;48.274;7.794;2022-12-07T14:05:12;12.45;;;8.50;;
21721;SDS011;11023;48.274;7.794;2022-12-07T14:10:26;11.30;;;8.65;;
21721;SDS011;11023;48.274;7.794;2022-12-07T14:12:59;12.20;;;8.48;;
21721;SDS011;11023;48.274;7.794;2022-12-07T14:15:27;12.32;;;8.57;;
21721;SDS011;11023;48.274;7.794;2022-12-07T14:17:55;12.73;;;8.73;;
21721;SDS011;11023;48.274;7.794;2022-12-07T14:23:06;13.70;;;9.43;;
21721;SDS011;11023;48.274;7.794;2022-12-07T14:25:51;9.88;;;7.60;;
21721;SDS011;11023;48.274;7.794;2022-12-07T14:28:31;11.88;;;8.98;;
21721;SDS011;11023;48.274;7.794;2022-12-07T14:30:58;11.43;;;8.35;;
21721;SDS011;11023;48.274;7.794;2022-12-07T14:33:25;13.00;;;8.60;;
21721;SDS011;11023;48.274;7.794;2022-12-07T14:35:51;11.23;;;8.13;;
21721;SDS011;11023;48.274;7.794;2022-12-07T14:38:24;11.38;;;8.32;;
21721;SDS011;11023;48.274;7.794;2022-12-07T14:40:51;11.27;;;8.45;;
21721;SDS011;11023;48.274;7.794;2022-12-07T14:43:18;11.90;;;8.32;;
21721;SDS011;11023;48.274;7.794;2022-12-07T14:45:45;10.38;;;7.80;;
21721;SDS011;11023;48.274;7.794;2022-12-07T14:48:12;11.45;;;8.25;;
21721;SDS011;11023;48.274;7.794;2022-12-07T14:50:41;12.15;;;9.02;;
21721;SDS011;11023;48.274;7.794;2022-12-07T14:53:13;10.52;;;7.93;;
21721;SDS011;11023;48.274;7.794;2022-12-07T14:55:41;11.98;;;8.45;;
21721;SDS011;11023;48.274;7.794;2022-12-07T14:58:13;12.00;;;9.13;;
21721;SDS011;11023;48.274;7.794;2022-12-07T15:00:40;12.38;;;8.73;;
21721;SDS011;11023;48.274;7.794;2022-12-07T15:03:06;11.85;;;8.50;;
21721;SDS011;11023;48.274;7.794;2022-12-07T15:05:32;14.85;;;8.93;;
21721;SDS011;11023;48.274;7.794;2022-12-07T15:07:58;12.55;;;9.27;;
21721;SDS011;11023;48.274;7.794;2022-12-07T15:10:28;12.13;;;8.35;;
21721;SDS011;11023;48.274;7.794;2022-12-07T15:13:00;11.63;;;8.45;;
21721;SDS011;11023;48.274;7.794;2022-12-07T15:15:45;13.52;;;9.23;;
21721;SDS011;11023;48.274;7.794;2022-12-07T15:18:12;12.82;;;8.90;;
21721;SDS011;11023;48.274;7.794;2022-12-07T15:20:38;13.20;;;9.15;;
21721;SDS011;11023;48.274;7.794;2022-12-07T15:23:04;12.13;;;8.63;;
21721;SDS011;11023;48.274;7.794;2022-12-07T15:25:30;12.38;;;9.02;;
21721;SDS011;11023;48.274;7.794;2022-12-07T15:27:56;13.50;;;8.48;;
21721;SDS011;11023;48.274;7.794;2022-12-07T15:30:21;12.23;;;9.30;;
21721;SDS011;11023;48.274;7.794;2022-12-07T15:32:51;14.52;;;9.07;;
21721;SDS011;11023;48.274;7.794;2022-12-07T15:35:18;11.20;;;8.00;;
21721;SDS011;11023;48.274;7.794;2022-12-07T15:37:44;12.18;;;8.32;;
21721;SDS011;11023;48.274;7.794;2022-12-07T15:40:10;12.60;;;8.98;;
21721;SDS011;11023;48.274;7.794;2022-12-07T15:42:36;14.50;;;9.55;;
21721;SDS011;11023;48.274;7.794;2022-12-07T15:45:03;13.23;;;9.00;;
21721;SDS011;11023;48.274;7.794;2022-12-07T15:47:39;14.80;;;10.05;;
21721;SDS011;11023;48.274;7.794;2022-12-07T15:50:08;16.73;;;9.77;;
21721;SDS011;11023;48.274;7.794;2022-12-07T15:52:35;16.73;;;9.13;;
21721;SDS011;11023;48.274;7.794;2022-12-07T15:55:01;12.93;;;8.57;;
21721;SDS011;11023;48.274;7.794;2022-12-07T15:57:28;12.77;;;8.88;;
21721;SDS011;11023;48.274;7.794;2022-12-07T15:59:58;11.00;;;8.30;;
21721;SDS011;11023;48.274;7.794;2022-12-07T16:02:24;15.30;;;9.60;;
21721;SDS011;11023;48.274;7.794;2022-12-07T16:04:50;18.35;;;11.10;;
21721;SDS011;11023;48.274;7.794;2022-12-07T16:07:17;20.52;;;11.82;;
21721;SDS011;11023;48.274;7.794;2022-12-07T16:09:43;23.25;;;14.23;;
21721;SDS011;11023;48.274;7.794;2022-12-07T16:12:10;21.80;;;14.75;;
21721;SDS011;11023;48.274;7.794;2022-12-07T16:14:37;29.05;;;17.30;;
21721;SDS011;11023;48.274;7.794;2022-12-07T16:17:03;25.00;;;16.85;;
21721;SDS011;11023;48.274;7.794;2022-12-07T16:19:30;29.92;;;18.02;;
21721;SDS011;11023;48.274;7.794;2022-12-07T16:21:56;30.90;;;19.27;;
21721;SDS011;11023;48.274;7.794;2022-12-07T16:24:22;36.80;;;18.27;;
21721;SDS011;11023;48.274;7.794;2022-12-07T16:26:48;27.23;;;15.98;;
21721;SDS011;11023;48.274;7.794;2022-12-07T16:29:14;22.55;;;15.20;;
21721;SDS011;11023;48.274;7.794;2022-12-07T16:31:41;23.45;;;16.30;;
21721;SDS011;11023;48.274;7.794;2022-12-07T16:34:07;25.75;;;15.23;;
21721;SDS011;11023;48.274;7.794;2022-12-07T16:36:33;26.13;;;16.05;;
21721;SDS011;11023;48.274;7.794;2022-12-07T16:38:59;21.83;;;13.60;;
21721;SDS011;11023;48.274;7.794;2022-12-07T16:41:26;15.88;;;11.63;;
21721;SDS011;11023;48.274;7.794;2022-12-07T16:43:52;18.77;;;12.52;;
21721;SDS011;11023;48.274;7.794;2022-12-07T16:46:17;18.00;;;12.27;;
21721;SDS011;11023;48.274;7.794;2022-12-07T16:48:43;18.67;;;12.25;;
21721;SDS011;11023;48.274;7.794;2022-12-07T16:51:10;19.65;;;12.50;;
21721;SDS011;11023;48.274;7.794;2022-12-07T16:53:37;17.58;;;12.40;;
21721;SDS011;11023;48.274;7.794;2022-12-07T16:56:05;19.48;;;13.15;;